首页
METAR-TAF:

METAR-TAF

机场 :

哥伦比亚, 南卡罗来纳州, 美国

纬度: 33-56-31N, 经度: 081-07-05W, 海拔: 71米

当前天气观测

该预报发布于59分钟前的13:56 UTC
风速6节,风向西
温度 3°C
湿度 87%
气压 1018 hPa
能見度: 16.1公里
少量云层高于18000英尺
散云层高于24000英尺

METAR: KCAE 261356Z 26006KT 10SM FEW180 SCT240 03/01 A3007 RMK AO2 SLP181 T00330006

时间: 09:55 (14:55 UTC)

预报

该预报发布于3小时和30分钟前的11:25 UTC
预报有效从26日的 12点(UTC)到 27日的 12点(UTC)
风速4节,风向西
能見度: 10公里
散云层高于25000英尺
从 26日的 1500点(UTC)
风速7节,风向西转西北
能見度: 10公里
散云层高于25000英尺
从 27日的 0500点(UTC)
风速3节,风向多变
能見度: 10公里
多云层高于8000英尺
阴天层高于15000英尺

TAF: KCAE 261125Z 2612/2712 26004KT P6SM SCT250 FM261500 29007KT P6SM SCT250 FM270500 VRB03KT P6SM BKN080 OVC150

超过4000个机场的气象观测和天气预报(METAR&TAF报告)。

可查询的气象台以黄色和红色小点在地图上表示。

将鼠标移到小点上方,可查看气象台名称。

然后点击查看天气观测和预报。

如需切换地图:点击带黑十字的绿色按钮放大地图;点击带横线的绿色按钮缩小地图;或者点击绿色箭头查看邻近地区的地图。


METAR-TAF: